sensor_id;sensor_type;location;lat;lon;timestamp;P1;durP1;ratioP1;P2;durP2;ratioP2
16029;SDS011;34770;49.272;11.070;2022-12-18T00:01:47;45.90;;;23.73;;
16029;SDS011;34770;49.272;11.070;2022-12-18T00:04:23;40.33;;;22.87;;
16029;SDS011;34770;49.272;11.070;2022-12-18T00:06:49;37.27;;;25.10;;
16029;SDS011;34770;49.272;11.070;2022-12-18T00:09:15;51.17;;;26.47;;
16029;SDS011;34770;49.272;11.070;2022-12-18T00:11:41;51.13;;;27.57;;
16029;SDS011;34770;49.272;11.070;2022-12-18T00:14:06;44.73;;;27.60;;
16029;SDS011;34770;49.272;11.070;2022-12-18T00:16:32;55.20;;;26.73;;
16029;SDS011;34770;49.272;11.070;2022-12-18T00:19:00;57.23;;;27.27;;
16029;SDS011;34770;49.272;11.070;2022-12-18T00:21:26;54.47;;;27.00;;
16029;SDS011;34770;49.272;11.070;2022-12-18T00:23:53;37.43;;;23.10;;
16029;SDS011;34770;49.272;11.070;2022-12-18T00:26:19;45.63;;;26.20;;
16029;SDS011;34770;49.272;11.070;2022-12-18T00:28:50;48.43;;;23.50;;
16029;SDS011;34770;49.272;11.070;2022-12-18T00:31:17;52.90;;;26.40;;
16029;SDS011;34770;49.272;11.070;2022-12-18T00:33:47;51.03;;;24.17;;
16029;SDS011;34770;49.272;11.070;2022-12-18T00:36:14;49.73;;;27.20;;
16029;SDS011;34770;49.272;11.070;2022-12-18T00:38:42;50.37;;;26.00;;
16029;SDS011;34770;49.272;11.070;2022-12-18T00:41:09;39.93;;;26.33;;
16029;SDS011;34770;49.272;11.070;2022-12-18T00:43:36;45.00;;;25.80;;
16029;SDS011;34770;49.272;11.070;2022-12-18T00:46:02;50.00;;;26.00;;
16029;SDS011;34770;49.272;11.070;2022-12-18T00:48:28;61.20;;;24.53;;
16029;SDS011;34770;49.272;11.070;2022-12-18T00:50:53;48.07;;;26.47;;
16029;SDS011;34770;49.272;11.070;2022-12-18T00:53:18;57.57;;;24.90;;
16029;SDS011;34770;49.272;11.070;2022-12-18T00:55:44;45.67;;;26.27;;
16029;SDS011;34770;49.272;11.070;2022-12-18T00:58:11;44.47;;;23.37;;
16029;SDS011;34770;49.272;11.070;2022-12-18T01:00:38;44.43;;;25.50;;
16029;SDS011;34770;49.272;11.070;2022-12-18T01:03:04;45.93;;;24.10;;
16029;SDS011;34770;49.272;11.070;2022-12-18T01:05:30;55.27;;;26.40;;
16029;SDS011;34770;49.272;11.070;2022-12-18T01:07:55;53.80;;;25.37;;
16029;SDS011;34770;49.272;11.070;2022-12-18T01:10:21;50.03;;;24.07;;
16029;SDS011;34770;49.272;11.070;2022-12-18T01:12:47;43.30;;;23.57;;
16029;SDS011;34770;49.272;11.070;2022-12-18T01:15:14;48.73;;;26.77;;
16029;SDS011;34770;49.272;11.070;2022-12-18T01:17:40;46.80;;;25.17;;
16029;SDS011;34770;49.272;11.070;2022-12-18T01:20:06;44.10;;;23.67;;
16029;SDS011;34770;49.272;11.070;2022-12-18T01:22:33;48.80;;;25.47;;
16029;SDS011;34770;49.272;11.070;2022-12-18T01:24:59;44.90;;;23.93;;
16029;SDS011;34770;49.272;11.070;2022-12-18T01:27:24;49.77;;;24.80;;
16029;SDS011;34770;49.272;11.070;2022-12-18T01:29:49;56.60;;;25.77;;
16029;SDS011;34770;49.272;11.070;2022-12-18T01:32:15;48.97;;;24.90;;
16029;SDS011;34770;49.272;11.070;2022-12-18T01:34:40;51.83;;;25.13;;
16029;SDS011;34770;49.272;11.070;2022-12-18T01:37:05;47.23;;;23.83;;
16029;SDS011;34770;49.272;11.070;2022-12-18T01:39:31;49.73;;;23.70;;
16029;SDS011;34770;49.272;11.070;2022-12-18T01:41:57;41.87;;;23.83;;
16029;SDS011;34770;49.272;11.070;2022-12-18T01:50:23;46.23;;;25.53;;
16029;SDS011;34770;49.272;11.070;2022-12-18T01:52:49;49.60;;;23.47;;
16029;SDS011;34770;49.272;11.070;2022-12-18T01:55:27;52.80;;;23.93;;
16029;SDS011;34770;49.272;11.070;2022-12-18T01:57:56;50.37;;;24.00;;
16029;SDS011;34770;49.272;11.070;2022-12-18T02:00:24;40.97;;;23.23;;
16029;SDS011;34770;49.272;11.070;2022-12-18T02:02:50;48.00;;;23.43;;
16029;SDS011;34770;49.272;11.070;2022-12-18T02:05:23;35.10;;;18.00;;
16029;SDS011;34770;49.272;11.070;2022-12-18T02:08:08;46.20;;;22.17;;
16029;SDS011;34770;49.272;11.070;2022-12-18T02:13:20;41.27;;;20.70;;
16029;SDS011;34770;49.272;11.070;2022-12-18T02:18:33;42.33;;;22.03;;
16029;SDS011;34770;49.272;11.070;2022-12-18T02:26:50;46.73;;;22.10;;
16029;SDS011;34770;49.272;11.070;2022-12-18T02:29:22;43.60;;;22.60;;
16029;SDS011;34770;49.272;11.070;2022-12-18T02:31:53;27.50;;;14.57;;
16029;SDS011;34770;49.272;11.070;2022-12-18T02:34:38;36.93;;;19.53;;
16029;SDS011;34770;49.272;11.070;2022-12-18T02:37:05;39.80;;;19.93;;
16029;SDS011;34770;49.272;11.070;2022-12-18T02:39:35;42.97;;;21.20;;
16029;SDS011;34770;49.272;11.070;2022-12-18T02:42:03;42.77;;;21.20;;
16029;SDS011;34770;49.272;11.070;2022-12-18T02:44:32;46.33;;;22.00;;
16029;SDS011;34770;49.272;11.070;2022-12-18T02:46:59;44.30;;;21.70;;
16029;SDS011;34770;49.272;11.070;2022-12-18T02:57:40;35.03;;;18.60;;
16029;SDS011;34770;49.272;11.070;2022-12-18T03:00:11;14.40;;;8.10;;
16029;SDS011;34770;49.272;11.070;2022-12-18T03:02:56;38.33;;;19.23;;
16029;SDS011;34770;49.272;11.070;2022-12-18T03:05:36;48.60;;;23.83;;
16029;SDS011;34770;49.272;11.070;2022-12-18T03:08:22;47.70;;;20.57;;
16029;SDS011;34770;49.272;11.070;2022-12-18T03:16:06;47.93;;;22.27;;
16029;SDS011;34770;49.272;11.070;2022-12-18T03:18:35;39.23;;;20.17;;
16029;SDS011;34770;49.272;11.070;2022-12-18T03:21:07;45.13;;;19.70;;
16029;SDS011;34770;49.272;11.070;2022-12-18T03:23:39;36.27;;;18.80;;
16029;SDS011;34770;49.272;11.070;2022-12-18T03:26:08;37.43;;;17.03;;
16029;SDS011;34770;49.272;11.070;2022-12-18T03:28:37;40.37;;;20.97;;
16029;SDS011;34770;49.272;11.070;2022-12-18T03:31:07;43.37;;;21.17;;
16029;SDS011;34770;49.272;11.070;2022-12-18T03:33:46;44.77;;;21.33;;
16029;SDS011;34770;49.272;11.070;2022-12-18T03:36:17;41.60;;;20.27;;
16029;SDS011;34770;49.272;11.070;2022-12-18T03:38:43;37.87;;;19.97;;
16029;SDS011;34770;49.272;11.070;2022-12-18T03:41:27;42.87;;;19.60;;
16029;SDS011;34770;49.272;11.070;2022-12-18T03:46:41;38.23;;;19.53;;
16029;SDS011;34770;49.272;11.070;2022-12-18T03:49:23;36.73;;;20.13;;
16029;SDS011;34770;49.272;11.070;2022-12-18T03:51:59;47.93;;;21.73;;
16029;SDS011;34770;49.272;11.070;2022-12-18T03:54:26;44.00;;;18.53;;
16029;SDS011;34770;49.272;11.070;2022-12-18T03:56:56;37.20;;;18.27;;
16029;SDS011;34770;49.272;11.070;2022-12-18T03:59:26;41.13;;;19.50;;
16029;SDS011;34770;49.272;11.070;2022-12-18T04:01:54;33.10;;;17.57;;
16029;SDS011;34770;49.272;11.070;2022-12-18T04:04:23;34.67;;;18.53;;
16029;SDS011;34770;49.272;11.070;2022-12-18T04:06:50;30.53;;;18.73;;
16029;SDS011;34770;49.272;11.070;2022-12-18T04:09:17;42.33;;;21.13;;
16029;SDS011;34770;49.272;11.070;2022-12-18T04:11:44;36.57;;;17.27;;
16029;SDS011;34770;49.272;11.070;2022-12-18T04:14:11;32.63;;;17.50;;
16029;SDS011;34770;49.272;11.070;2022-12-18T04:16:37;36.57;;;16.97;;
16029;SDS011;34770;49.272;11.070;2022-12-18T04:19:02;31.93;;;18.43;;
16029;SDS011;34770;49.272;11.070;2022-12-18T04:21:28;40.63;;;19.43;;
16029;SDS011;34770;49.272;11.070;2022-12-18T04:23:53;32.33;;;16.23;;
16029;SDS011;34770;49.272;11.070;2022-12-18T04:26:19;28.73;;;15.37;;
16029;SDS011;34770;49.272;11.070;2022-12-18T04:28:45;40.77;;;19.57;;
16029;SDS011;34770;49.272;11.070;2022-12-18T04:31:10;37.17;;;17.37;;
16029;SDS011;34770;49.272;11.070;2022-12-18T04:33:36;20.97;;;11.43;;
16029;SDS011;34770;49.272;11.070;2022-12-18T04:36:01;30.83;;;16.17;;
16029;SDS011;34770;49.272;11.070;2022-12-18T04:38:26;34.17;;;17.33;;
16029;SDS011;34770;49.272;11.070;2022-12-18T04:40:52;32.33;;;14.80;;
16029;SDS011;34770;49.272;11.070;2022-12-18T04:43:17;33.43;;;15.90;;
16029;SDS011;34770;49.272;11.070;2022-12-18T04:45:42;33.27;;;14.87;;
16029;SDS011;34770;49.272;11.070;2022-12-18T04:48:08;28.50;;;16.17;;
16029;SDS011;34770;49.272;11.070;2022-12-18T04:50:33;26.23;;;14.23;;
16029;SDS011;34770;49.272;11.070;2022-12-18T04:52:58;32.20;;;16.97;;
16029;SDS011;34770;49.272;11.070;2022-12-18T04:55:24;34.67;;;17.67;;
16029;SDS011;34770;49.272;11.070;2022-12-18T04:57:49;33.47;;;16.07;;
16029;SDS011;34770;49.272;11.070;2022-12-18T05:00:15;33.97;;;16.70;;
16029;SDS011;34770;49.272;11.070;2022-12-18T05:02:40;35.97;;;17.03;;
16029;SDS011;34770;49.272;11.070;2022-12-18T05:05:06;33.63;;;17.43;;
16029;SDS011;34770;49.272;11.070;2022-12-18T05:07:31;28.87;;;16.60;;
16029;SDS011;34770;49.272;11.070;2022-12-18T05:09:57;31.70;;;15.57;;
16029;SDS011;34770;49.272;11.070;2022-12-18T05:12:22;36.80;;;15.53;;
16029;SDS011;34770;49.272;11.070;2022-12-18T05:14:47;27.63;;;14.93;;
16029;SDS011;34770;49.272;11.070;2022-12-18T05:17:13;35.17;;;16.43;;
16029;SDS011;34770;49.272;11.070;2022-12-18T05:19:38;30.40;;;15.50;;
16029;SDS011;34770;49.272;11.070;2022-12-18T05:22:03;23.43;;;12.10;;
16029;SDS011;34770;49.272;11.070;2022-12-18T05:24:34;21.60;;;12.90;;
16029;SDS011;34770;49.272;11.070;2022-12-18T05:27:00;30.73;;;14.97;;
16029;SDS011;34770;49.272;11.070;2022-12-18T05:29:25;24.73;;;11.00;;
16029;SDS011;34770;49.272;11.070;2022-12-18T05:31:51;33.60;;;16.00;;
16029;SDS011;34770;49.272;11.070;2022-12-18T05:34:16;29.47;;;15.90;;
16029;SDS011;34770;49.272;11.070;2022-12-18T05:36:41;36.77;;;14.93;;
16029;SDS011;34770;49.272;11.070;2022-12-18T05:39:09;27.20;;;15.80;;
16029;SDS011;34770;49.272;11.070;2022-12-18T05:41:35;30.00;;;15.13;;
16029;SDS011;34770;49.272;11.070;2022-12-18T05:44:00;36.60;;;15.80;;
16029;SDS011;34770;49.272;11.070;2022-12-18T05:46:26;34.30;;;16.53;;
16029;SDS011;34770;49.272;11.070;2022-12-18T05:48:51;35.70;;;15.10;;
16029;SDS011;34770;49.272;11.070;2022-12-18T05:51:18;27.70;;;13.90;;
16029;SDS011;34770;49.272;11.070;2022-12-18T05:53:45;32.90;;;16.70;;
16029;SDS011;34770;49.272;11.070;2022-12-18T05:56:12;38.17;;;16.77;;
16029;SDS011;34770;49.272;11.070;2022-12-18T05:58:40;33.63;;;16.00;;
16029;SDS011;34770;49.272;11.070;2022-12-18T06:01:16;36.73;;;16.43;;
16029;SDS011;34770;49.272;11.070;2022-12-18T06:03:43;27.70;;;13.73;;
16029;SDS011;34770;49.272;11.070;2022-12-18T06:06:16;31.47;;;14.70;;
16029;SDS011;34770;49.272;11.070;2022-12-18T06:08:44;31.97;;;16.87;;
16029;SDS011;34770;49.272;11.070;2022-12-18T06:11:10;31.30;;;16.10;;
16029;SDS011;34770;49.272;11.070;2022-12-18T06:13:35;31.73;;;16.23;;
16029;SDS011;34770;49.272;11.070;2022-12-18T06:16:02;32.93;;;15.43;;
16029;SDS011;34770;49.272;11.070;2022-12-18T06:18:29;30.00;;;15.30;;
16029;SDS011;34770;49.272;11.070;2022-12-18T06:20:55;28.60;;;15.53;;
16029;SDS011;34770;49.272;11.070;2022-12-18T06:23:21;27.70;;;14.67;;
16029;SDS011;34770;49.272;11.070;2022-12-18T06:25:47;31.40;;;14.80;;
16029;SDS011;34770;49.272;11.070;2022-12-18T06:28:12;29.43;;;11.90;;
16029;SDS011;34770;49.272;11.070;2022-12-18T06:30:37;32.97;;;14.10;;
16029;SDS011;34770;49.272;11.070;2022-12-18T06:33:03;32.50;;;14.43;;
16029;SDS011;34770;49.272;11.070;2022-12-18T06:35:28;30.10;;;14.87;;
16029;SDS011;34770;49.272;11.070;2022-12-18T06:37:53;27.03;;;12.67;;
16029;SDS011;34770;49.272;11.070;2022-12-18T06:40:19;29.07;;;12.87;;
16029;SDS011;34770;49.272;11.070;2022-12-18T06:42:46;27.73;;;14.30;;
16029;SDS011;34770;49.272;11.070;2022-12-18T06:45:11;22.03;;;12.50;;
16029;SDS011;34770;49.272;11.070;2022-12-18T06:47:39;29.77;;;14.83;;
16029;SDS011;34770;49.272;11.070;2022-12-18T06:50:05;29.63;;;13.47;;
16029;SDS011;34770;49.272;11.070;2022-12-18T06:52:31;18.93;;;11.67;;
16029;SDS011;34770;49.272;11.070;2022-12-18T06:54:57;27.23;;;14.47;;
16029;SDS011;34770;49.272;11.070;2022-12-18T06:57:22;18.20;;;11.33;;
16029;SDS011;34770;49.272;11.070;2022-12-18T06:59:48;24.50;;;13.17;;
16029;SDS011;34770;49.272;11.070;2022-12-18T07:02:13;29.20;;;14.90;;
16029;SDS011;34770;49.272;11.070;2022-12-18T07:04:39;25.63;;;13.20;;
16029;SDS011;34770;49.272;11.070;2022-12-18T07:07:04;18.77;;;11.03;;
16029;SDS011;34770;49.272;11.070;2022-12-18T07:09:30;28.27;;;13.70;;
16029;SDS011;34770;49.272;11.070;2022-12-18T07:11:55;24.30;;;13.73;;
16029;SDS011;34770;49.272;11.070;2022-12-18T07:14:20;24.87;;;14.10;;
16029;SDS011;34770;49.272;11.070;2022-12-18T07:16:46;29.30;;;12.73;;
16029;SDS011;34770;49.272;11.070;2022-12-18T07:19:11;21.03;;;11.17;;
16029;SDS011;34770;49.272;11.070;2022-12-18T07:21:36;24.03;;;13.70;;
16029;SDS011;34770;49.272;11.070;2022-12-18T07:24:02;27.47;;;14.37;;
16029;SDS011;34770;49.272;11.070;2022-12-18T07:26:28;32.27;;;15.30;;
16029;SDS011;34770;49.272;11.070;2022-12-18T07:28:56;34.73;;;13.17;;
16029;SDS011;34770;49.272;11.070;2022-12-18T07:31:22;27.73;;;14.70;;
16029;SDS011;34770;49.272;11.070;2022-12-18T07:33:48;29.47;;;13.67;;
16029;SDS011;34770;49.272;11.070;2022-12-18T07:36:15;30.73;;;14.20;;
16029;SDS011;34770;49.272;11.070;2022-12-18T07:38:41;29.33;;;13.57;;
16029;SDS011;34770;49.272;11.070;2022-12-18T07:41:07;26.03;;;14.30;;
16029;SDS011;34770;49.272;11.070;2022-12-18T07:43:37;26.37;;;14.13;;
16029;SDS011;34770;49.272;11.070;2022-12-18T07:46:03;33.13;;;15.70;;
16029;SDS011;34770;49.272;11.070;2022-12-18T07:48:29;33.30;;;16.43;;
16029;SDS011;34770;49.272;11.070;2022-12-18T07:51:01;38.30;;;16.40;;
16029;SDS011;34770;49.272;11.070;2022-12-18T07:53:29;34.23;;;15.17;;
16029;SDS011;34770;49.272;11.070;2022-12-18T07:55:58;32.53;;;14.77;;
16029;SDS011;34770;49.272;11.070;2022-12-18T07:58:28;35.90;;;14.47;;
16029;SDS011;34770;49.272;11.070;2022-12-18T08:00:54;33.03;;;15.80;;
16029;SDS011;34770;49.272;11.070;2022-12-18T08:03:28;36.87;;;14.83;;
16029;SDS011;34770;49.272;11.070;2022-12-18T08:05:57;39.77;;;17.97;;
16029;SDS011;34770;49.272;11.070;2022-12-18T08:08:23;28.43;;;15.00;;
16029;SDS011;34770;49.272;11.070;2022-12-18T08:10:49;25.43;;;14.10;;
16029;SDS011;34770;49.272;11.070;2022-12-18T08:13:14;26.77;;;15.20;;
16029;SDS011;34770;49.272;11.070;2022-12-18T08:15:39;36.80;;;14.77;;
16029;SDS011;34770;49.272;11.070;2022-12-18T08:18:05;33.90;;;18.00;;
16029;SDS011;34770;49.272;11.070;2022-12-18T08:20:30;30.70;;;15.23;;
16029;SDS011;34770;49.272;11.070;2022-12-18T08:22:55;37.20;;;17.23;;
16029;SDS011;34770;49.272;11.070;2022-12-18T08:25:22;26.53;;;15.07;;
16029;SDS011;34770;49.272;11.070;2022-12-18T08:27:48;33.17;;;15.37;;
16029;SDS011;34770;49.272;11.070;2022-12-18T08:30:13;32.97;;;14.87;;
16029;SDS011;34770;49.272;11.070;2022-12-18T08:32:39;31.30;;;14.43;;
16029;SDS011;34770;49.272;11.070;2022-12-18T08:35:04;30.33;;;15.37;;
16029;SDS011;34770;49.272;11.070;2022-12-18T08:37:30;27.30;;;13.73;;
16029;SDS011;34770;49.272;11.070;2022-12-18T08:39:55;26.40;;;15.10;;
16029;SDS011;34770;49.272;11.070;2022-12-18T08:42:21;33.00;;;16.90;;
16029;SDS011;34770;49.272;11.070;2022-12-18T08:45:05;27.47;;;14.20;;
16029;SDS011;34770;49.272;11.070;2022-12-18T08:47:30;20.90;;;12.73;;
16029;SDS011;34770;49.272;11.070;2022-12-18T08:49:56;24.70;;;14.03;;
16029;SDS011;34770;49.272;11.070;2022-12-18T08:52:21;37.87;;;16.60;;
16029;SDS011;34770;49.272;11.070;2022-12-18T08:54:46;29.40;;;14.93;;
16029;SDS011;34770;49.272;11.070;2022-12-18T08:57:12;26.63;;;14.60;;
16029;SDS011;34770;49.272;11.070;2022-12-18T08:59:37;28.80;;;15.50;;
16029;SDS011;34770;49.272;11.070;2022-12-18T09:02:02;27.00;;;13.63;;
16029;SDS011;34770;49.272;11.070;2022-12-18T09:04:28;29.10;;;14.97;;
16029;SDS011;34770;49.272;11.070;2022-12-18T09:06:54;30.73;;;17.30;;
16029;SDS011;34770;49.272;11.070;2022-12-18T09:09:19;32.33;;;16.10;;
16029;SDS011;34770;49.272;11.070;2022-12-18T09:11:45;27.67;;;15.63;;
16029;SDS011;34770;49.272;11.070;2022-12-18T09:14:10;27.03;;;15.10;;
16029;SDS011;34770;49.272;11.070;2022-12-18T09:16:35;28.07;;;14.27;;
16029;SDS011;34770;49.272;11.070;2022-12-18T09:19:02;27.87;;;13.97;;
16029;SDS011;34770;49.272;11.070;2022-12-18T09:21:32;28.20;;;13.90;;
16029;SDS011;34770;49.272;11.070;2022-12-18T09:23:59;24.77;;;13.27;;
16029;SDS011;34770;49.272;11.070;2022-12-18T09:26:25;29.67;;;15.17;;
16029;SDS011;34770;49.272;11.070;2022-12-18T09:28:51;24.87;;;12.23;;
16029;SDS011;34770;49.272;11.070;2022-12-18T09:31:17;22.00;;;12.23;;
16029;SDS011;34770;49.272;11.070;2022-12-18T09:33:44;31.20;;;15.53;;
16029;SDS011;34770;49.272;11.070;2022-12-18T09:36:11;27.17;;;15.17;;
16029;SDS011;34770;49.272;11.070;2022-12-18T09:38:38;27.20;;;14.67;;
16029;SDS011;34770;49.272;11.070;2022-12-18T09:44:24;30.57;;;14.70;;
16029;SDS011;34770;49.272;11.070;2022-12-18T09:47:10;38.73;;;17.03;;
16029;SDS011;34770;49.272;11.070;2022-12-18T09:49:46;26.00;;;14.80;;
16029;SDS011;34770;49.272;11.070;2022-12-18T09:52:25;24.73;;;12.00;;
16029;SDS011;34770;49.272;11.070;2022-12-18T09:54:56;21.53;;;11.70;;
16029;SDS011;34770;49.272;11.070;2022-12-18T09:57:35;26.30;;;14.47;;
16029;SDS011;34770;49.272;11.070;2022-12-18T10:00:09;22.73;;;12.40;;
16029;SDS011;34770;49.272;11.070;2022-12-18T10:02:41;26.87;;;14.20;;
16029;SDS011;34770;49.272;11.070;2022-12-18T10:05:07;26.70;;;14.53;;
16029;SDS011;34770;49.272;11.070;2022-12-18T10:08:10;17.93;;;9.93;;
16029;SDS011;34770;49.272;11.070;2022-12-18T10:10:51;34.20;;;15.90;;
16029;SDS011;34770;49.272;11.070;2022-12-18T10:21:45;28.83;;;14.20;;
16029;SDS011;34770;49.272;11.070;2022-12-18T10:27:29;35.87;;;16.77;;
16029;SDS011;34770;49.272;11.070;2022-12-18T10:29:56;50.30;;;20.77;;
16029;SDS011;34770;49.272;11.070;2022-12-18T10:32:23;44.83;;;22.10;;
16029;SDS011;34770;49.272;11.070;2022-12-18T10:34:55;33.20;;;15.87;;
16029;SDS011;34770;49.272;11.070;2022-12-18T10:37:24;28.93;;;15.97;;
16029;SDS011;34770;49.272;11.070;2022-12-18T10:40:08;35.87;;;17.13;;
16029;SDS011;34770;49.272;11.070;2022-12-18T10:42:36;32.77;;;15.90;;
16029;SDS011;34770;49.272;11.070;2022-12-18T10:45:08;31.83;;;16.27;;
16029;SDS011;34770;49.272;11.070;2022-12-18T10:47:42;35.30;;;17.57;;
16029;SDS011;34770;49.272;11.070;2022-12-18T10:50:18;28.13;;;14.83;;
16029;SDS011;34770;49.272;11.070;2022-12-18T10:52:58;36.17;;;16.87;;
16029;SDS011;34770;49.272;11.070;2022-12-18T10:55:35;39.47;;;17.37;;
16029;SDS011;34770;49.272;11.070;2022-12-18T10:58:13;31.60;;;16.63;;
16029;SDS011;34770;49.272;11.070;2022-12-18T11:00:45;26.17;;;13.47;;
16029;SDS011;34770;49.272;11.070;2022-12-18T11:03:30;33.73;;;17.43;;
16029;SDS011;34770;49.272;11.070;2022-12-18T11:06:03;30.23;;;16.30;;
16029;SDS011;34770;49.272;11.070;2022-12-18T11:08:29;31.23;;;17.07;;
16029;SDS011;34770;49.272;11.070;2022-12-18T11:10:54;29.10;;;15.67;;
16029;SDS011;34770;49.272;11.070;2022-12-18T11:13:21;31.87;;;15.83;;
16029;SDS011;34770;49.272;11.070;2022-12-18T11:15:48;28.93;;;15.77;;
16029;SDS011;34770;49.272;11.070;2022-12-18T11:18:19;29.00;;;16.87;;
16029;SDS011;34770;49.272;11.070;2022-12-18T11:20:53;25.83;;;13.47;;
16029;SDS011;34770;49.272;11.070;2022-12-18T11:23:22;29.37;;;13.97;;
16029;SDS011;34770;49.272;11.070;2022-12-18T11:25:52;35.97;;;18.30;;
16029;SDS011;34770;49.272;11.070;2022-12-18T11:28:28;22.20;;;14.07;;
16029;SDS011;34770;49.272;11.070;2022-12-18T11:36:34;26.17;;;13.67;;
16029;SDS011;34770;49.272;11.070;2022-12-18T11:39:12;27.73;;;14.90;;
16029;SDS011;34770;49.272;11.070;2022-12-18T11:41:47;23.43;;;14.13;;
16029;SDS011;34770;49.272;11.070;2022-12-18T11:44:38;22.87;;;13.80;;
16029;SDS011;34770;49.272;11.070;2022-12-18T11:47:19;29.50;;;15.87;;
16029;SDS011;34770;49.272;11.070;2022-12-18T11:49:52;23.60;;;15.17;;
16029;SDS011;34770;49.272;11.070;2022-12-18T11:52:24;23.93;;;15.63;;
16029;SDS011;34770;49.272;11.070;2022-12-18T11:54:58;20.20;;;13.47;;
16029;SDS011;34770;49.272;11.070;2022-12-18T11:57:34;19.50;;;10.47;;
16029;SDS011;34770;49.272;11.070;2022-12-18T12:08:36;25.73;;;13.43;;
16029;SDS011;34770;49.272;11.070;2022-12-18T12:11:22;22.37;;;12.87;;
16029;SDS011;34770;49.272;11.070;2022-12-18T12:20:06;23.93;;;12.93;;
16029;SDS011;34770;49.272;11.070;2022-12-18T12:22:50;24.73;;;13.93;;
16029;SDS011;34770;49.272;11.070;2022-12-18T12:28:07;28.80;;;12.97;;
16029;SDS011;34770;49.272;11.070;2022-12-18T12:33:31;27.03;;;12.90;;
16029;SDS011;34770;49.272;11.070;2022-12-18T12:36:09;27.57;;;15.10;;
16029;SDS011;34770;49.272;11.070;2022-12-18T12:38:52;26.63;;;14.53;;
16029;SDS011;34770;49.272;11.070;2022-12-18T12:41:25;23.00;;;13.17;;
16029;SDS011;34770;49.272;11.070;2022-12-18T12:44:19;24.43;;;13.43;;
16029;SDS011;34770;49.272;11.070;2022-12-18T12:46:50;27.03;;;15.43;;
16029;SDS011;34770;49.272;11.070;2022-12-18T12:49:20;21.93;;;12.30;;
16029;SDS011;34770;49.272;11.070;2022-12-18T12:51:57;22.27;;;14.47;;
16029;SDS011;34770;49.272;11.070;2022-12-18T12:54:32;22.43;;;14.30;;
16029;SDS011;34770;49.272;11.070;2022-12-18T12:59:39;21.53;;;13.13;;
16029;SDS011;34770;49.272;11.070;2022-12-18T13:04:58;26.67;;;14.87;;
16029;SDS011;34770;49.272;11.070;2022-12-18T13:07:39;25.77;;;13.77;;
16029;SDS011;34770;49.272;11.070;2022-12-18T13:15:31;19.50;;;10.70;;
16029;SDS011;34770;49.272;11.070;2022-12-18T13:21:10;24.07;;;14.27;;
16029;SDS011;34770;49.272;11.070;2022-12-18T13:23:38;25.33;;;14.20;;
16029;SDS011;34770;49.272;11.070;2022-12-18T13:31:11;17.83;;;10.30;;
16029;SDS011;34770;49.272;11.070;2022-12-18T13:34:16;24.87;;;13.20;;
16029;SDS011;34770;49.272;11.070;2022-12-18T13:36:47;21.37;;;12.67;;
16029;SDS011;34770;49.272;11.070;2022-12-18T13:41:49;21.63;;;12.70;;
16029;SDS011;34770;49.272;11.070;2022-12-18T13:44:25;23.27;;;12.47;;
16029;SDS011;34770;49.272;11.070;2022-12-18T13:46:58;21.93;;;12.80;;
16029;SDS011;34770;49.272;11.070;2022-12-18T13:49:27;23.10;;;13.07;;
16029;SDS011;34770;49.272;11.070;2022-12-18T13:51:56;27.67;;;14.57;;
16029;SDS011;34770;49.272;11.070;2022-12-18T13:54:30;28.57;;;15.27;;
16029;SDS011;34770;49.272;11.070;2022-12-18T13:57:02;20.57;;;11.33;;
16029;SDS011;34770;49.272;11.070;2022-12-18T13:59:33;17.40;;;10.93;;
16029;SDS011;34770;49.272;11.070;2022-12-18T14:02:14;22.77;;;13.20;;
16029;SDS011;34770;49.272;11.070;2022-12-18T14:04:44;20.23;;;11.63;;
16029;SDS011;34770;49.272;11.070;2022-12-18T14:07:18;22.67;;;13.83;;
16029;SDS011;34770;49.272;11.070;2022-12-18T14:09:56;19.33;;;12.10;;
16029;SDS011;34770;49.272;11.070;2022-12-18T14:12:26;16.97;;;10.30;;
16029;SDS011;34770;49.272;11.070;2022-12-18T14:17:57;23.43;;;12.47;;
16029;SDS011;34770;49.272;11.070;2022-12-18T14:20:26;24.17;;;12.43;;
16029;SDS011;34770;49.272;11.070;2022-12-18T14:22:53;27.37;;;12.77;;
16029;SDS011;34770;49.272;11.070;2022-12-18T14:25:24;28.03;;;14.87;;
16029;SDS011;34770;49.272;11.070;2022-12-18T14:30:54;26.87;;;14.20;;
16029;SDS011;34770;49.272;11.070;2022-12-18T14:33:24;27.67;;;14.73;;
16029;SDS011;34770;49.272;11.070;2022-12-18T14:38:28;25.33;;;13.83;;
16029;SDS011;34770;49.272;11.070;2022-12-18T14:41:02;25.10;;;14.33;;
16029;SDS011;34770;49.272;11.070;2022-12-18T14:43:28;28.70;;;16.90;;
16029;SDS011;34770;49.272;11.070;2022-12-18T14:45:56;28.97;;;14.03;;
16029;SDS011;34770;49.272;11.070;2022-12-18T14:51:06;26.53;;;13.53;;
16029;SDS011;34770;49.272;11.070;2022-12-18T14:53:58;28.27;;;14.77;;
16029;SDS011;34770;49.272;11.070;2022-12-18T14:58:53;23.20;;;13.93;;
16029;SDS011;34770;49.272;11.070;2022-12-18T15:01:28;29.07;;;15.60;;
16029;SDS011;34770;49.272;11.070;2022-12-18T15:03:59;29.07;;;16.70;;
16029;SDS011;34770;49.272;11.070;2022-12-18T15:06:33;39.70;;;17.27;;
16029;SDS011;34770;49.272;11.070;2022-12-18T15:09:02;40.97;;;18.87;;
16029;SDS011;34770;49.272;11.070;2022-12-18T15:11:34;30.23;;;15.73;;
16029;SDS011;34770;49.272;11.070;2022-12-18T15:14:23;39.33;;;17.77;;
16029;SDS011;34770;49.272;11.070;2022-12-18T15:16:50;31.40;;;16.30;;
16029;SDS011;34770;49.272;11.070;2022-12-18T15:19:17;36.00;;;17.60;;
16029;SDS011;34770;49.272;11.070;2022-12-18T15:21:44;31.50;;;16.83;;
16029;SDS011;34770;49.272;11.070;2022-12-18T15:24:21;43.30;;;20.80;;
16029;SDS011;34770;49.272;11.070;2022-12-18T15:26:52;33.67;;;16.80;;
16029;SDS011;34770;49.272;11.070;2022-12-18T15:29:21;41.40;;;19.97;;
16029;SDS011;34770;49.272;11.070;2022-12-18T15:32:16;32.73;;;16.33;;
16029;SDS011;34770;49.272;11.070;2022-12-18T15:34:44;66.30;;;30.37;;
16029;SDS011;34770;49.272;11.070;2022-12-18T15:37:10;90.97;;;37.97;;
16029;SDS011;34770;49.272;11.070;2022-12-18T15:39:35;53.57;;;25.93;;
16029;SDS011;34770;49.272;11.070;2022-12-18T16:15:41;34.57;;;20.13;;
16029;SDS011;34770;49.272;11.070;2022-12-18T16:18:07;35.87;;;17.77;;
16029;SDS011;34770;49.272;11.070;2022-12-18T16:20:36;37.17;;;22.00;;
16029;SDS011;34770;49.272;11.070;2022-12-18T16:23:03;44.57;;;24.07;;
16029;SDS011;34770;49.272;11.070;2022-12-18T16:25:29;29.73;;;16.73;;
16029;SDS011;34770;49.272;11.070;2022-12-18T16:27:57;31.23;;;18.33;;
16029;SDS011;34770;49.272;11.070;2022-12-18T16:30:24;41.40;;;22.37;;
16029;SDS011;34770;49.272;11.070;2022-12-18T16:32:53;40.17;;;23.00;;
16029;SDS011;34770;49.272;11.070;2022-12-18T16:35:20;36.07;;;23.40;;
16029;SDS011;34770;49.272;11.070;2022-12-18T16:37:46;37.47;;;22.13;;
16029;SDS011;34770;49.272;11.070;2022-12-18T16:40:13;31.33;;;19.17;;
16029;SDS011;34770;49.272;11.070;2022-12-18T16:42:40;29.47;;;19.10;;
16029;SDS011;34770;49.272;11.070;2022-12-18T16:45:13;32.80;;;20.13;;